Time;durP1;ratioP1;P1;durP2;ratioP2;P2;SDS_P1;SDS_P2;PMS_P1;PMS_P2;Temp;Humidity;BMP_temperature;BMP_pressure;BME280_temperature;BME280_humidity;BME280_pressure;Samples;Min_cycle;Max_cycle;Signal;HPM_P1;HPM_P2
2023/04/01 00:01:24;;;;;;;1.40;0.70;;;21.20;79.90;;;;;;5027178;28;20227;-50
2023/04/01 00:03:51;;;;;;;0.98;0.80;;;21.20;79.80;;;;;;5029368;28;20196;-47
2023/04/01 00:06:19;;;;;;;0.80;0.70;;;21.20;79.60;;;;;;5028497;28;20196;-49
2023/04/01 00:08:46;;;;;;;2.30;0.63;;;21.20;79.60;;;;;;5030153;28;20200;-49
2023/04/01 00:11:13;;;;;;;1.60;1.00;;;21.10;79.30;;;;;;5031548;28;20204;-46
2023/04/01 00:13:40;;;;;;;2.00;0.77;;;21.10;79.20;;;;;;5030314;28;20281;-48
2023/04/01 00:16:08;;;;;;;1.60;0.90;;;21.10;79.20;;;;;;5029919;28;20199;-49
2023/04/01 00:18:36;;;;;;;0.95;0.80;;;21.10;79.10;;;;;;5029969;28;20200;-54
2023/04/01 00:21:02;;;;;;;1.15;0.90;;;21.10;78.80;;;;;;5030723;28;20192;-51
2023/04/01 00:23:29;;;;;;;1.10;0.73;;;21.00;78.70;;;;;;5028574;28;20224;-54
2023/04/01 00:25:56;;;;;;;1.00;0.80;;;21.00;78.50;;;;;;5029640;28;20204;-48
2023/04/01 00:28:23;;;;;;;1.45;0.85;;;21.00;78.50;;;;;;5019420;28;20254;-47
2023/04/01 00:30:49;;;;;;;2.33;0.77;;;21.00;78.40;;;;;;5027723;28;20250;-50
2023/04/01 00:33:17;;;;;;;1.55;0.90;;;21.00;78.40;;;;;;5025467;28;20610;-49
2023/04/01 00:35:45;;;;;;;1.05;0.73;;;21.00;78.30;;;;;;5028255;28;20228;-51
2023/04/01 00:38:12;;;;;;;1.20;0.70;;;20.90;78.20;;;;;;5028990;28;20283;-47
2023/04/01 00:40:41;;;;;;;0.90;0.70;;;20.90;78.10;;;;;;5030258;28;20204;-50
2023/04/01 00:43:13;;;;;;;1.10;0.70;;;20.90;78.10;;;;;;5023325;28;20201;-51
2023/04/01 00:45:42;;;;;;;1.00;0.80;;;20.90;78.00;;;;;;5029269;28;20200;-52
2023/04/01 00:48:13;;;;;;;0.95;0.70;;;20.90;78.00;;;;;;5032935;28;20246;-51
2023/04/01 00:50:44;;;;;;;0.93;0.70;;;20.90;78.00;;;;;;5015990;28;20205;-51
2023/04/01 00:53:12;;;;;;;0.90;0.70;;;20.90;77.80;;;;;;5032960;28;20188;-46
2023/04/01 00:55:44;;;;;;;0.90;0.63;;;20.90;77.80;;;;;;5028637;28;20216;-45
2023/04/01 00:58:17;;;;;;;3.80;0.70;;;20.90;77.80;;;;;;5029816;28;20200;-49
2023/04/01 01:00:46;;;;;;;0.90;0.60;;;20.90;77.80;;;;;;5028042;28;20200;-47
2023/04/01 01:03:12;;;;;;;0.90;0.70;;;20.90;77.70;;;;;;5033027;28;20200;-48
2023/04/01 01:05:56;;;;;;;1.60;1.00;;;20.90;77.70;;;;;;5030760;28;20294;-52
2023/04/01 01:08:33;;;;;;;0.90;0.65;;;20.80;77.50;;;;;;5023793;28;20601;-47
2023/04/01 01:10:59;;;;;;;1.00;0.70;;;20.80;77.60;;;;;;5025565;28;20200;-51
2023/04/01 01:13:35;;;;;;;1.60;0.70;;;20.80;77.60;;;;;;5028677;28;20656;-52
2023/04/01 01:16:07;;;;;;;1.05;0.70;;;20.80;77.50;;;;;;5024194;28;20611;-49
2023/04/01 01:18:40;;;;;;;0.90;0.68;;;20.80;77.50;;;;;;5019739;28;20204;-49
2023/04/01 01:21:42;;;;;;;1.20;0.75;;;20.80;77.30;;;;;;5030872;28;20192;-51
2023/04/01 01:24:31;;;;;;;1.10;0.70;;;20.80;77.40;;;;;;4998190;28;20203;-50
2023/04/01 01:27:03;;;;;;;0.80;0.60;;;20.80;77.30;;;;;;5027627;28;20200;-51
2023/04/01 01:29:57;;;;;;;0.80;0.60;;;20.70;77.30;;;;;;5026342;28;20262;-50
2023/04/01 01:33:06;;;;;;;0.90;0.70;;;20.70;77.20;;;;;;5023309;28;20550;-53
2023/04/01 01:35:38;;;;;;;1.20;0.90;;;20.70;77.10;;;;;;5021927;28;20220;-53
2023/04/01 01:38:09;;;;;;;1.00;0.68;;;20.70;77.20;;;;;;5023460;28;20189;-53
2023/04/01 01:40:37;;;;;;;0.80;0.70;;;20.70;77.20;;;;;;5029065;28;20200;-51
2023/04/01 01:43:07;;;;;;;1.45;0.75;;;20.70;77.20;;;;;;5028860;28;20196;-52
2023/04/01 01:45:39;;;;;;;1.23;0.80;;;20.70;77.20;;;;;;5030848;28;20195;-51
2023/04/01 01:48:07;;;;;;;0.80;0.60;;;20.70;77.90;;;;;;5015996;28;20196;-50
2023/04/01 01:50:37;;;;;;;0.90;0.60;;;20.70;77.20;;;;;;5027085;28;20263;-55
2023/04/01 01:53:05;;;;;;;1.13;0.75;;;20.70;77.10;;;;;;5017289;28;20228;-54
2023/04/01 01:55:34;;;;;;;1.52;0.80;;;20.60;77.00;;;;;;5026477;28;20227;-56
2023/04/01 01:58:06;;;;;;;1.00;0.75;;;20.60;77.00;;;;;;5028630;28;20722;-53
2023/04/01 02:00:34;;;;;;;0.90;0.60;;;20.60;77.00;;;;;;5025103;28;20262;-51
2023/04/01 02:03:01;;;;;;;0.98;0.77;;;20.60;77.70;;;;;;5029508;28;20230;-50
2023/04/01 02:05:30;;;;;;;1.00;0.70;;;20.60;76.90;;;;;;5020253;28;20210;-53
2023/04/01 02:08:03;;;;;;;0.90;0.70;;;20.60;76.90;;;;;;5025369;28;20761;-48
2023/04/01 02:10:35;;;;;;;0.90;0.60;;;20.60;76.90;;;;;;5028183;28;20200;-47
2023/04/01 02:13:08;;;;;;;1.42;0.82;;;20.60;77.00;;;;;;5020312;28;20594;-48
2023/04/01 02:15:41;;;;;;;1.15;0.73;;;20.60;76.90;;;;;;5029489;28;20224;-49
2023/04/01 02:18:09;;;;;;;1.20;0.80;;;20.60;76.90;;;;;;5020046;28;20246;-48
2023/04/01 02:20:39;;;;;;;1.00;0.80;;;20.60;76.80;;;;;;5024362;28;20209;-49
2023/04/01 02:23:08;;;;;;;1.00;0.70;;;20.60;76.90;;;;;;5021212;28;20261;-54
2023/04/01 02:25:37;;;;;;;1.83;0.65;;;20.60;76.80;;;;;;5018781;28;20295;-53
2023/04/01 02:28:06;;;;;;;1.35;0.70;;;20.60;76.90;;;;;;5021578;28;20196;-49
2023/04/01 02:30:36;;;;;;;1.17;0.70;;;20.50;76.80;;;;;;5025620;28;20295;-52
2023/04/01 02:33:04;;;;;;;0.80;0.60;;;20.50;76.70;;;;;;5029150;28;20250;-51
2023/04/01 02:35:33;;;;;;;1.30;0.70;;;20.50;76.80;;;;;;5029307;28;20262;-51
2023/04/01 02:38:00;;;;;;;1.00;0.70;;;20.50;76.70;;;;;;5019114;28;20671;-48
2023/04/01 02:40:28;;;;;;;0.80;0.60;;;20.50;77.40;;;;;;5022548;28;20197;-61
2023/04/01 02:42:55;;;;;;;0.82;0.60;;;20.50;76.80;;;;;;5015380;28;20600;-47
2023/04/01 02:45:21;;;;;;;0.98;0.70;;;20.50;76.70;;;;;;5023611;28;20193;-49
2023/04/01 02:47:48;;;;;;;1.13;0.80;;;20.50;76.70;;;;;;5031125;28;20195;-47
2023/04/01 02:50:15;;;;;;;0.90;0.60;;;20.50;76.60;;;;;;5029630;28;20246;-48
2023/04/01 02:52:41;;;;;;;0.90;0.60;;;20.50;76.60;;;;;;5015619;28;20228;-47
2023/04/01 02:55:09;;;;;;;1.10;0.90;;;20.50;76.70;;;;;;5025652;28;20267;-50
2023/04/01 02:57:37;;;;;;;1.05;0.90;;;20.50;76.70;;;;;;5024915;28;20193;-48
2023/04/01 03:00:10;;;;;;;0.90;0.65;;;20.40;76.50;;;;;;5026640;28;20226;-47
2023/04/01 03:02:38;;;;;;;1.13;0.85;;;20.40;76.40;;;;;;5028262;28;20196;-49
2023/04/01 03:05:05;;;;;;;1.00;0.70;;;20.40;76.50;;;;;;5027796;28;20855;-48
2023/04/01 03:07:32;;;;;;;0.90;0.80;;;20.40;76.40;;;;;;5029355;28;20670;-50
2023/04/01 03:09:59;;;;;;;1.00;0.70;;;20.40;76.50;;;;;;5028537;28;20192;-50
2023/04/01 03:12:26;;;;;;;1.00;0.60;;;20.40;76.40;;;;;;5021843;28;20258;-54
2023/04/01 03:14:54;;;;;;;1.10;0.60;;;20.40;76.40;;;;;;5022276;28;20212;-47
2023/04/01 03:17:20;;;;;;;0.90;0.70;;;20.40;76.50;;;;;;5027228;28;20683;-48
2023/04/01 03:19:47;;;;;;;1.75;0.73;;;20.40;76.40;;;;;;5028225;28;20660;-57
2023/04/01 03:22:14;;;;;;;1.00;0.70;;;20.40;76.40;;;;;;5023447;28;20216;-48
2023/04/01 03:24:41;;;;;;;0.90;0.70;;;20.40;76.40;;;;;;5020047;28;20977;-47
2023/04/01 03:27:07;;;;;;;0.80;0.55;;;20.40;76.40;;;;;;5020314;28;20200;-56
2023/04/01 03:29:34;;;;;;;1.00;0.70;;;20.40;76.50;;;;;;5020929;28;20196;-48
2023/04/01 03:32:02;;;;;;;1.23;0.80;;;20.40;76.40;;;;;;5022631;28;20192;-54
2023/04/01 03:34:29;;;;;;;1.30;0.90;;;20.40;76.40;;;;;;5028917;28;20207;-52
2023/04/01 03:36:55;;;;;;;1.05;0.80;;;20.40;76.40;;;;;;5025241;28;20204;-49
2023/04/01 03:39:22;;;;;;;0.90;0.60;;;20.40;76.40;;;;;;5027852;28;20223;-49
2023/04/01 03:41:49;;;;;;;1.38;0.70;;;20.30;76.30;;;;;;5021955;28;20204;-55
2023/04/01 03:44:16;;;;;;;1.10;0.70;;;20.30;76.30;;;;;;5026894;28;20223;-51
2023/04/01 03:46:43;;;;;;;0.90;0.60;;;20.30;76.30;;;;;;5028796;28;20258;-49
2023/04/01 03:49:12;;;;;;;2.17;0.70;;;20.30;76.30;;;;;;5027338;28;20633;-51
2023/04/01 03:51:39;;;;;;;0.90;0.70;;;20.30;76.30;;;;;;5014257;28;20301;-53
2023/04/01 03:54:06;;;;;;;0.90;0.70;;;20.30;76.40;;;;;;5030152;28;20283;-52
2023/04/01 03:56:33;;;;;;;0.77;0.55;;;20.30;76.30;;;;;;5024521;28;20228;-52
2023/04/01 03:59:02;;;;;;;1.08;0.93;;;20.30;76.30;;;;;;5027113;28;20201;-54
2023/04/01 04:01:29;;;;;;;0.90;0.65;;;20.30;76.40;;;;;;5028342;28;20216;-49
2023/04/01 04:03:56;;;;;;;0.82;0.60;;;20.30;76.40;;;;;;5029798;28;20191;-55
2023/04/01 04:06:25;;;;;;;1.13;0.75;;;20.30;76.40;;;;;;5014501;28;20211;-52
2023/04/01 04:08:52;;;;;;;1.38;0.80;;;20.20;76.20;;;;;;5022400;28;20192;-50
2023/04/01 04:11:20;;;;;;;0.88;0.63;;;20.20;76.30;;;;;;5022797;28;20242;-51
2023/04/01 04:13:47;;;;;;;1.00;0.80;;;20.20;76.20;;;;;;5025956;28;20254;-47
2023/04/01 04:16:16;;;;;;;1.20;0.70;;;20.20;76.30;;;;;;5020512;28;20711;-48
2023/04/01 04:18:43;;;;;;;0.80;0.60;;;20.20;76.30;;;;;;5028351;28;20204;-48
2023/04/01 04:21:13;;;;;;;1.10;0.80;;;20.20;76.20;;;;;;5023781;28;20596;-53
2023/04/01 04:23:41;;;;;;;1.00;0.80;;;20.20;76.20;;;;;;5019304;28;20205;-50
2023/04/01 04:26:11;;;;;;;0.80;0.60;;;20.20;76.30;;;;;;5020243;28;20204;-47
2023/04/01 04:28:38;;;;;;;0.80;0.60;;;20.20;76.30;;;;;;5021441;28;20619;-52
2023/04/01 04:31:06;;;;;;;0.80;0.60;;;20.20;76.20;;;;;;5020572;28;20242;-51
2023/04/01 04:33:33;;;;;;;0.80;0.60;;;20.20;76.20;;;;;;5025663;28;20192;-47
2023/04/01 04:36:03;;;;;;;1.30;1.13;;;20.20;76.30;;;;;;5026312;28;20220;-51
2023/04/01 04:38:30;;;;;;;1.00;0.70;;;20.20;76.20;;;;;;5023862;28;20207;-52
2023/04/01 04:40:58;;;;;;;0.90;0.70;;;20.20;76.20;;;;;;5024569;28;20222;-54
2023/04/01 04:43:25;;;;;;;1.08;0.70;;;20.20;76.30;;;;;;5025642;28;20208;-48
2023/04/01 04:45:52;;;;;;;0.80;0.50;;;20.10;76.10;;;;;;5019042;28;20234;-52
2023/04/01 04:48:20;;;;;;;0.90;0.63;;;20.10;76.10;;;;;;5028008;28;20200;-52
2023/04/01 04:50:48;;;;;;;0.90;0.70;;;20.10;76.10;;;;;;5027108;28;20605;-54
2023/04/01 04:53:15;;;;;;;0.90;0.65;;;20.10;76.10;;;;;;5025756;28;20632;-56
2023/04/01 04:55:44;;;;;;;0.98;0.77;;;20.10;76.20;;;;;;5025066;28;20221;-53
2023/04/01 04:58:12;;;;;;;1.00;0.70;;;20.10;76.10;;;;;;5024398;28;20280;-53
2023/04/01 05:00:39;;;;;;;1.00;0.70;;;20.10;76.80;;;;;;5028393;28;20208;-49
2023/04/01 05:03:06;;;;;;;1.13;0.73;;;20.10;76.10;;;;;;5022004;28;20731;-54
2023/04/01 05:05:33;;;;;;;0.90;0.70;;;20.10;76.10;;;;;;5024921;28;20204;-54
2023/04/01 05:08:00;;;;;;;1.08;0.70;;;20.10;76.10;;;;;;5031334;28;20659;-52
2023/04/01 05:10:26;;;;;;;0.80;0.60;;;20.10;76.10;;;;;;5031218;28;20223;-48
2023/04/01 05:12:53;;;;;;;1.00;0.70;;;20.10;76.10;;;;;;5023196;28;20657;-51
2023/04/01 05:15:21;;;;;;;0.80;0.60;;;20.10;76.10;;;;;;5030289;28;20290;-54
2023/04/01 05:17:48;;;;;;;0.90;0.60;;;20.10;76.30;;;;;;5020087;28;20631;-53
2023/04/01 05:20:15;;;;;;;1.00;0.80;;;20.10;76.40;;;;;;5025792;28;20208;-53
2023/04/01 05:22:42;;;;;;;0.80;0.60;;;20.10;76.30;;;;;;5022814;28;20212;-51
2023/04/01 05:25:09;;;;;;;0.90;0.70;;;20.10;76.20;;;;;;5022985;28;20266;-51
2023/04/01 05:27:36;;;;;;;0.90;0.68;;;20.20;76.30;;;;;;5028021;28;20193;-53
2023/04/01 05:30:03;;;;;;;0.90;0.60;;;20.20;76.20;;;;;;5030373;28;20200;-52
2023/04/01 05:32:33;;;;;;;0.90;0.70;;;20.20;76.20;;;;;;5017626;28;20208;-57
2023/04/01 05:34:59;;;;;;;0.80;0.60;;;20.20;76.20;;;;;;5027974;28;20201;-50
2023/04/01 05:37:26;;;;;;;0.80;0.60;;;20.20;76.20;;;;;;5023401;28;20546;-56
2023/04/01 05:39:53;;;;;;;0.80;0.60;;;20.30;76.30;;;;;;5027092;28;20273;-49
2023/04/01 05:42:19;;;;;;;1.00;0.70;;;20.30;76.20;;;;;;5024111;28;20200;-48
2023/04/01 05:44:46;;;;;;;0.85;0.60;;;20.30;76.20;;;;;;5026850;28;20196;-48
2023/04/01 05:47:13;;;;;;;1.30;0.80;;;20.30;76.10;;;;;;5025860;28;20201;-49
2023/04/01 05:49:41;;;;;;;0.90;0.60;;;20.30;76.10;;;;;;5026690;28;20197;-47
2023/04/01 05:52:08;;;;;;;0.90;0.60;;;20.30;76.00;;;;;;5027967;28;20596;-48
2023/04/01 05:54:35;;;;;;;0.90;0.60;;;20.30;76.00;;;;;;5029702;28;20204;-48
2023/04/01 05:57:02;;;;;;;0.90;0.60;;;20.30;76.00;;;;;;5028225;28;20251;-47
2023/04/01 05:59:30;;;;;;;0.90;0.60;;;20.30;75.90;;;;;;5026822;28;20200;-48
2023/04/01 06:01:57;;;;;;;1.02;0.70;;;20.30;75.90;;;;;;5028900;28;20189;-50
2023/04/01 06:04:25;;;;;;;0.90;0.60;;;20.30;75.90;;;;;;5022941;28;20226;-47
2023/04/01 06:06:53;;;;;;;0.95;0.70;;;20.30;75.90;;;;;;5027761;28;20292;-47
2023/04/01 06:09:25;;;;;;;0.90;0.60;;;20.30;75.90;;;;;;5025208;28;20247;-47
2023/04/01 06:12:17;;;;;;;0.80;0.60;;;20.30;75.90;;;;;;5026574;28;20283;-47
2023/04/01 06:14:54;;;;;;;1.38;1.00;;;20.30;75.80;;;;;;5028440;28;20200;-47
2023/04/01 06:17:30;;;;;;;0.80;0.50;;;20.30;75.80;;;;;;5028637;28;20215;-47
2023/04/01 06:20:04;;;;;;;1.05;0.60;;;20.40;75.90;;;;;;5018916;28;20188;-48
2023/04/01 06:22:52;;;;;;;0.90;0.60;;;20.40;75.90;;;;;;5022277;28;20223;-54
2023/04/01 06:25:45;;;;;;;0.70;0.50;;;20.40;75.90;;;;;;5017204;28;20205;-47
2023/04/01 06:28:36;;;;;;;0.82;0.60;;;20.40;75.90;;;;;;5025334;28;20533;-48
2023/04/01 06:31:07;;;;;;;0.80;0.60;;;20.40;75.90;;;;;;5026272;28;20203;-53
2023/04/01 06:33:49;;;;;;;1.00;0.70;;;20.50;76.00;;;;;;5026470;28;20192;-47
2023/04/01 06:36:38;;;;;;;0.80;0.60;;;20.50;75.90;;;;;;5025574;28;20230;-54
2023/04/01 06:39:20;;;;;;;0.80;0.60;;;20.50;75.80;;;;;;5015161;28;20192;-52
2023/04/01 06:42:11;;;;;;;0.90;0.60;;;20.50;75.80;;;;;;5022146;28;20660;-53
2023/04/01 06:44:50;;;;;;;0.90;0.70;;;20.50;75.70;;;;;;5029761;28;20212;-48
2023/04/01 06:47:31;;;;;;;0.85;0.57;;;20.60;75.80;;;;;;5027005;28;20192;-47
2023/04/01 06:50:03;;;;;;;1.88;0.68;;;20.60;75.70;;;;;;5025538;28;20204;-53
2023/04/01 06:52:42;;;;;;;0.80;0.68;;;20.60;75.70;;;;;;5025010;28;20557;-48
2023/04/01 06:55:26;;;;;;;0.90;0.70;;;20.60;75.60;;;;;;5028488;28;20602;-48
2023/04/01 06:57:56;;;;;;;0.80;0.60;;;20.60;75.50;;;;;;5018369;28;20195;-52
2023/04/01 07:00:28;;;;;;;1.00;0.65;;;20.60;75.60;;;;;;5021036;28;20212;-53
2023/04/01 07:03:03;;;;;;;1.48;0.60;;;20.60;75.50;;;;;;5022047;28;20472;-48
2023/04/01 07:05:32;;;;;;;0.98;0.70;;;20.60;75.40;;;;;;5024168;28;20191;-50
2023/04/01 07:08:02;;;;;;;0.80;0.60;;;20.70;75.50;;;;;;5025569;28;20652;-50
2023/04/01 07:10:36;;;;;;;0.93;0.60;;;20.70;75.50;;;;;;5027249;28;20653;-50
2023/04/01 07:13:09;;;;;;;0.95;0.60;;;20.70;75.50;;;;;;5019391;28;20200;-50
2023/04/01 07:15:39;;;;;;;0.80;0.60;;;20.70;75.50;;;;;;5027852;28;20196;-48
2023/04/01 07:18:12;;;;;;;1.00;0.60;;;20.70;75.40;;;;;;5025250;28;20202;-51
2023/04/01 07:20:39;;;;;;;0.80;0.60;;;20.70;75.30;;;;;;5024542;28;20200;-50
2023/04/01 07:23:12;;;;;;;0.80;0.60;;;20.70;75.30;;;;;;5026284;28;20220;-50
2023/04/01 07:25:45;;;;;;;1.13;0.85;;;20.70;75.30;;;;;;5022486;28;20196;-46
2023/04/01 07:28:16;;;;;;;0.80;0.50;;;20.70;75.20;;;;;;5021359;28;20279;-48
2023/04/01 07:30:53;;;;;;;0.80;0.50;;;20.80;75.40;;;;;;5029254;28;20196;-47
2023/04/01 07:33:26;;;;;;;0.90;0.60;;;20.80;75.30;;;;;;5020451;28;20247;-48
2023/04/01 07:35:58;;;;;;;0.88;0.63;;;20.80;75.30;;;;;;5017404;28;20200;-49
2023/04/01 07:38:34;;;;;;;0.80;0.60;;;20.80;75.10;;;;;;5024977;28;20207;-47
2023/04/01 07:41:11;;;;;;;0.90;0.60;;;20.80;75.30;;;;;;5023371;28;20196;-52
2023/04/01 07:43:54;;;;;;;1.95;0.68;;;20.80;75.10;;;;;;5020619;28;20201;-50
2023/04/01 07:46:38;;;;;;;1.00;0.80;;;20.80;75.10;;;;;;5016124;28;20196;-47
2023/04/01 07:49:12;;;;;;;0.90;0.60;;;20.80;75.90;;;;;;5021009;28;20483;-47
2023/04/01 07:51:46;;;;;;;1.98;0.70;;;20.80;75.00;;;;;;5026090;28;20558;-51
2023/04/01 07:54:22;;;;;;;2.65;0.70;;;20.90;75.30;;;;;;5025291;28;20196;-48
2023/04/01 07:56:56;;;;;;;1.00;0.65;;;20.90;75.10;;;;;;5015822;28;20270;-47
2023/04/01 07:59:28;;;;;;;1.00;0.70;;;20.90;75.10;;;;;;5021559;28;20246;-48
2023/04/01 08:02:03;;;;;;;2.38;0.70;;;20.90;75.10;;;;;;5015730;28;20668;-47
2023/04/01 08:04:42;;;;;;;1.00;0.60;;;20.90;75.10;;;;;;5023614;28;20207;-48
2023/04/01 08:07:14;;;;;;;0.88;0.65;;;20.90;75.00;;;;;;5025715;28;20200;-48
2023/04/01 08:09:49;;;;;;;1.25;0.60;;;20.90;75.00;;;;;;5025380;28;20702;-49
2023/04/01 08:12:30;;;;;;;0.98;0.60;;;20.90;75.00;;;;;;5022237;28;20214;-58
2023/04/01 08:15:08;;;;;;;1.02;0.60;;;20.90;75.00;;;;;;5018380;28;20219;-53
2023/04/01 08:17:44;;;;;;;1.58;0.93;;;20.90;74.90;;;;;;5027068;28;20611;-48
2023/04/01 08:20:26;;;;;;;0.90;0.60;;;20.90;74.90;;;;;;5025897;28;20218;-49
2023/04/01 08:22:58;;;;;;;1.23;0.70;;;20.90;74.90;;;;;;5021278;28;20346;-50
2023/04/01 08:25:27;;;;;;;0.95;0.77;;;20.90;75.50;;;;;;5022333;28;20247;-52
2023/04/01 08:28:01;;;;;;;7.40;0.82;;;20.90;75.90;;;;;;5024606;28;20200;-51
2023/04/01 08:30:37;;;;;;;2.10;0.90;;;21.00;76.00;;;;;;5036699;28;20199;-55
2023/04/01 08:33:11;;;;;;;5.28;0.70;;;21.00;76.20;;;;;;5033557;28;20195;-59
2023/04/01 08:35:42;;;;;;;0.80;0.60;;;21.00;76.10;;;;;;5031328;28;20200;-57
2023/04/01 08:38:15;;;;;;;1.50;0.60;;;21.00;76.10;;;;;;5023863;28;20220;-53
2023/04/01 08:40:59;;;;;;;0.80;0.70;;;21.00;76.00;;;;;;5030199;28;20645;-53
2023/04/01 08:43:56;;;;;;;0.80;0.60;;;21.00;75.80;;;;;;5025300;28;20564;-54
2023/04/01 08:47:06;;;;;;;0.80;0.60;;;21.00;75.60;;;;;;5026680;28;20196;-53
2023/04/01 08:50:11;;;;;;;1.70;0.98;;;21.00;75.40;;;;;;5029160;28;20541;-51
2023/04/01 08:52:48;;;;;;;1.30;0.80;;;21.00;75.20;;;;;;5028916;28;20192;-55
2023/04/01 08:55:31;;;;;;;1.10;0.80;;;21.00;75.00;;;;;;5028899;28;20200;-53
2023/04/01 08:58:18;;;;;;;1.00;0.70;;;21.00;74.90;;;;;;5029969;28;20223;-52
2023/04/01 09:00:51;;;;;;;1.05;0.70;;;21.10;74.90;;;;;;5028238;28;20196;-53
2023/04/01 09:03:48;;;;;;;1.60;0.95;;;21.10;74.80;;;;;;5030742;28;20196;-53
2023/04/01 09:06:41;;;;;;;1.20;0.70;;;21.10;74.80;;;;;;4998512;28;20251;-55
2023/04/01 09:09:45;;;;;;;1.02;0.65;;;21.10;74.60;;;;;;5026840;28;20201;-53
2023/04/01 09:12:42;;;;;;;0.90;0.60;;;21.10;74.60;;;;;;5026530;28;20204;-56
2023/04/01 09:15:36;;;;;;;0.90;0.60;;;21.10;74.50;;;;;;5027732;28;20668;-51
2023/04/01 09:18:21;;;;;;;1.25;0.60;;;21.10;74.50;;;;;;5029135;28;20215;-54
2023/04/01 09:21:03;;;;;;;2.35;0.60;;;21.10;74.30;;;;;;5027188;28;21215;-50
2023/04/01 09:23:43;;;;;;;1.35;0.63;;;21.10;74.50;;;;;;5025805;28;20227;-56
2023/04/01 09:26:25;;;;;;;1.05;0.73;;;21.10;74.50;;;;;;5027016;28;20607;-49
2023/04/01 09:29:03;;;;;;;0.90;0.60;;;21.10;74.50;;;;;;5028108;28;20295;-52
2023/04/01 09:32:18;;;;;;;0.90;0.70;;;21.10;74.60;;;;;;5028421;28;20660;-48
2023/04/01 09:34:58;;;;;;;0.80;0.60;;;21.10;74.60;;;;;;4992541;28;20347;-51
2023/04/01 09:37:35;;;;;;;0.93;0.75;;;21.10;74.60;;;;;;5026266;28;20463;-48
2023/04/01 09:40:23;;;;;;;6.28;0.70;;;21.10;74.60;;;;;;5017125;28;20660;-51
2023/04/01 09:43:05;;;;;;;3.92;0.82;;;21.10;74.70;;;;;;5018690;28;20200;-50
2023/04/01 09:45:42;;;;;;;4.88;1.08;;;21.10;74.90;;;;;;5016139;28;20305;-60
2023/04/01 09:48:25;;;;;;;1.45;0.80;;;21.10;75.20;;;;;;5024058;28;20290;-57
2023/04/01 09:51:05;;;;;;;1.65;0.70;;;21.20;75.30;;;;;;5023003;28;20196;-54
2023/04/01 09:53:51;;;;;;;3.00;0.60;;;21.20;75.60;;;;;;5024164;28;20196;-53
2023/04/01 09:57:05;;;;;;;1.10;0.50;;;21.20;75.70;;;;;;5031310;28;20613;-55
2023/04/01 10:00:19;;;;;;;1.48;0.75;;;21.20;75.80;;;;;;5030275;28;20579;-53
2023/04/01 10:03:19;;;;;;;0.90;0.60;;;21.30;75.90;;;;;;5021540;28;20599;-59
2023/04/01 10:06:15;;;;;;;1.50;0.60;;;21.30;75.90;;;;;;4995636;28;20205;-51
2023/04/01 10:09:31;;;;;;;0.93;0.70;;;21.30;76.00;;;;;;5025213;28;20208;-50
2023/04/01 10:12:37;;;;;;;1.38;0.80;;;21.30;76.00;;;;;;4941949;29;20621;-54
2023/04/01 10:15:48;;;;;;;1.75;0.70;;;21.30;76.00;;;;;;5024524;28;20207;-48
2023/04/01 10:18:40;;;;;;;1.52;0.60;;;21.30;76.00;;;;;;5021681;28;20223;-51
2023/04/01 10:21:33;;;;;;;3.25;0.70;;;21.40;76.10;;;;;;5027855;28;20196;-53
2023/04/01 10:24:26;;;;;;;1.00;0.73;;;21.40;76.00;;;;;;5031044;28;20652;-52
2023/04/01 10:27:10;;;;;;;0.80;0.60;;;21.40;76.00;;;;;;5021397;28;20200;-49
2023/04/01 10:30:03;;;;;;;1.00;0.70;;;21.40;76.00;;;;;;5027299;28;20802;-52
2023/04/01 10:33:02;;;;;;;1.80;0.60;;;21.40;76.00;;;;;;5024257;28;20207;-47
2023/04/01 10:36:04;;;;;;;2.85;1.02;;;21.40;76.00;;;;;;4993165;28;20197;-55
2023/04/01 10:38:56;;;;;;;0.80;0.60;;;21.40;76.00;;;;;;5032093;28;20222;-48
2023/04/01 10:41:51;;;;;;;1.40;0.70;;;21.40;76.00;;;;;;5027469;28;20246;-48
2023/04/01 10:44:53;;;;;;;0.90;0.68;;;21.50;76.20;;;;;;5025853;28;20466;-50
2023/04/01 10:47:45;;;;;;;0.80;0.60;;;21.50;76.20;;;;;;5000684;28;20265;-47
2023/04/01 10:50:46;;;;;;;2.20;0.85;;;21.50;76.20;;;;;;5001429;28;20196;-50
2023/04/01 10:53:34;;;;;;;0.90;0.70;;;21.50;76.30;;;;;;5022676;28;20241;-50
2023/04/01 10:56:34;;;;;;;1.00;0.70;;;21.60;76.40;;;;;;5023410;28;20216;-48
2023/04/01 10:59:27;;;;;;;1.42;0.73;;;21.60;76.40;;;;;;5026629;28;20747;-49
2023/04/01 11:02:32;;;;;;;1.00;0.88;;;21.60;76.20;;;;;;5018549;28;20224;-54
2023/04/01 11:05:27;;;;;;;0.80;0.60;;;21.60;76.20;;;;;;5027813;28;20196;-55
2023/04/01 11:08:50;;;;;;;1.08;0.80;;;21.70;76.20;;;;;;5023538;28;20256;-55
2023/04/01 11:11:53;;;;;;;7.82;1.80;;;21.70;76.20;;;;;;5027091;28;20702;-53
2023/04/01 11:14:47;;;;;;;1.05;0.70;;;21.70;76.20;;;;;;5024764;28;20288;-53
2023/04/01 11:17:43;;;;;;;0.80;0.60;;;21.70;76.10;;;;;;5012842;28;20216;-58
2023/04/01 11:20:39;;;;;;;1.00;0.70;;;21.80;76.20;;;;;;5027101;28;20246;-55
2023/04/01 11:23:28;;;;;;;1.08;0.80;;;21.80;76.10;;;;;;5023763;28;20274;-53
2023/04/01 11:26:20;;;;;;;0.80;0.60;;;21.80;76.00;;;;;;5021540;28;20776;-51
2023/04/01 11:29:20;;;;;;;0.90;0.70;;;21.80;75.90;;;;;;5026108;28;20977;-50
2023/04/01 11:32:00;;;;;;;0.90;0.70;;;21.80;75.90;;;;;;5018900;28;20856;-50
2023/04/01 11:34:56;;;;;;;0.90;0.60;;;21.90;75.90;;;;;;5027259;28;20447;-53
2023/04/01 11:37:35;;;;;;;2.03;0.67;;;21.90;75.80;;;;;;5027514;28;20528;-50
2023/04/01 11:40:13;;;;;;;1.00;0.60;;;21.90;76.50;;;;;;5022345;28;20446;-59
2023/04/01 11:42:49;;;;;;;0.90;0.60;;;21.90;75.60;;;;;;5018592;28;20460;-56
2023/04/01 11:45:33;;;;;;;0.80;0.70;;;21.90;75.60;;;;;;5024141;28;20516;-63
2023/04/01 11:48:28;;;;;;;0.80;0.60;;;21.90;75.60;;;;;;5022175;28;20834;-58
2023/04/01 11:51:10;;;;;;;1.53;0.70;;;21.90;75.50;;;;;;5026913;28;20501;-56
2023/04/01 11:53:47;;;;;;;1.83;0.63;;;22.00;75.70;;;;;;5023541;28;20460;-54
2023/04/01 11:56:29;;;;;;;0.90;0.70;;;22.00;75.70;;;;;;5028443;28;20452;-52
2023/04/01 11:59:35;;;;;;;0.83;0.60;;;22.00;76.40;;;;;;5025153;28;20489;-56
2023/04/01 12:02:12;;;;;;;1.20;0.70;;;22.00;75.60;;;;;;5026775;28;20452;-50
2023/04/01 12:05:08;;;;;;;1.17;0.80;;;22.00;75.60;;;;;;5039184;28;20465;-53
2023/04/01 12:07:54;;;;;;;0.90;0.63;;;22.00;75.60;;;;;;5032504;28;20583;-54
2023/04/01 12:10:27;;;;;;;2.50;0.70;;;22.00;75.60;;;;;;5039250;28;20885;-49
2023/04/01 12:13:03;;;;;;;1.25;0.60;;;22.00;75.60;;;;;;5032683;28;20462;-51
2023/04/01 12:15:43;;;;;;;0.93;0.70;;;22.10;75.60;;;;;;5031475;28;20208;-49
2023/04/01 12:18:18;;;;;;;1.20;0.70;;;22.10;75.50;;;;;;5038866;28;20531;-50
2023/04/01 12:20:53;;;;;;;2.00;0.70;;;22.10;75.40;;;;;;5032693;28;20459;-58
2023/04/01 12:23:48;;;;;;;1.67;0.60;;;22.10;75.30;;;;;;5030920;28;20216;-50
2023/04/01 12:26:42;;;;;;;1.77;0.70;;;22.10;75.30;;;;;;5026612;28;20520;-52
2023/04/01 12:29:29;;;;;;;1.97;0.63;;;22.10;75.20;;;;;;5037657;28;20520;-52
2023/04/01 12:32:03;;;;;;;1.00;0.70;;;22.10;75.10;;;;;;5037520;28;20458;-51
2023/04/01 12:34:48;;;;;;;0.90;0.70;;;22.20;75.20;;;;;;5039099;28;20497;-56
2023/04/01 12:37:21;;;;;;;1.00;0.60;;;22.20;75.20;;;;;;5034690;28;20463;-54
2023/04/01 12:40:00;;;;;;;0.90;0.70;;;22.20;75.10;;;;;;5034999;28;20462;-52
2023/04/01 12:42:56;;;;;;;1.77;0.70;;;22.20;75.20;;;;;;5033764;28;20469;-57
2023/04/01 12:45:31;;;;;;;1.10;0.70;;;22.20;75.00;;;;;;5033342;28;20492;-50
2023/04/01 12:48:17;;;;;;;1.10;0.60;;;22.20;75.00;;;;;;5034616;28;20504;-51
2023/04/01 12:51:10;;;;;;;0.87;0.67;;;22.20;75.00;;;;;;5034988;28;20454;-50
2023/04/01 12:53:55;;;;;;;0.90;0.70;;;22.20;74.90;;;;;;5033616;28;20475;-53
2023/04/01 12:56:32;;;;;;;0.90;0.63;;;22.20;75.00;;;;;;5035131;28;20435;-48
2023/04/01 12:59:27;;;;;;;0.80;0.60;;;22.20;74.90;;;;;;5025704;28;20477;-53
2023/04/01 13:02:02;;;;;;;1.10;0.67;;;22.20;74.80;;;;;;5031109;28;20455;-49
2023/04/01 13:04:59;;;;;;;1.07;0.70;;;22.20;74.80;;;;;;5037089;28;20543;-53
2023/04/01 13:07:43;;;;;;;1.10;1.00;;;22.20;74.60;;;;;;5028517;28;20512;-49
2023/04/01 13:10:18;;;;;;;1.60;1.33;;;22.10;74.50;;;;;;5027007;28;20509;-52
2023/04/01 13:13:00;;;;;;;3.22;1.60;;;22.00;74.60;;;;;;5025567;28;20797;-56
2023/04/01 13:15:34;;;;;;;1.55;1.45;;;21.90;74.50;;;;;;5027146;28;20246;-51
2023/04/01 13:18:14;;;;;;;2.67;1.40;;;21.80;74.30;;;;;;5028048;28;20269;-57
2023/04/01 13:20:46;;;;;;;2.00;1.80;;;21.70;74.30;;;;;;5024034;28;20205;-59
2023/04/01 13:23:31;;;;;;;4.32;1.90;;;21.70;74.50;;;;;;5029420;28;20814;-55
2023/04/01 13:26:09;;;;;;;2.80;2.00;;;21.60;74.40;;;;;;5028608;28;20192;-53
2023/04/01 13:28:41;;;;;;;5.68;2.25;;;21.60;74.40;;;;;;5027441;28;20481;-53
2023/04/01 13:31:17;;;;;;;4.45;1.60;;;21.50;74.40;;;;;;5030741;28;20591;-50
2023/04/01 13:33:48;;;;;;;2.67;1.60;;;21.50;74.70;;;;;;5030052;28;21272;-51
2023/04/01 13:36:27;;;;;;;2.33;1.63;;;21.50;74.50;;;;;;5025017;28;20207;-53
2023/04/01 13:39:08;;;;;;;1.85;1.42;;;21.40;74.60;;;;;;5024613;28;20274;-54